sensor_id;sensor_type;location;lat;lon;timestamp;pressure;altitude;pressure_sealevel;temperature;humidity
67697;BME280;54486;51.442;6.778;2023-03-14T00:02:23;98886.97;;;11.63;84.71
67697;BME280;54486;51.442;6.778;2023-03-14T00:04:54;98896.94;;;11.75;84.24
67697;BME280;54486;51.442;6.778;2023-03-14T00:07:22;98890.69;;;11.79;83.82
67697;BME280;54486;51.442;6.778;2023-03-14T00:09:52;98891.31;;;11.84;83.53
67697;BME280;54486;51.442;6.778;2023-03-14T00:12:20;98875.50;;;11.87;83.66
67697;BME280;54486;51.442;6.778;2023-03-14T00:14:47;98854.47;;;11.90;82.87
67697;BME280;54486;51.442;6.778;2023-03-14T00:17:14;98849.38;;;11.87;82.88
67697;BME280;54486;51.442;6.778;2023-03-14T00:19:41;98849.38;;;11.87;83.62
67697;BME280;54486;51.442;6.778;2023-03-14T00:22:08;98830.19;;;11.88;83.26
67697;BME280;54486;51.442;6.778;2023-03-14T00:24:35;98846.59;;;11.92;83.31
67697;BME280;54486;51.442;6.778;2023-03-14T00:27:03;98859.31;;;11.99;83.03
67697;BME280;54486;51.442;6.778;2023-03-14T00:29:30;98870.69;;;11.98;83.07
67697;BME280;54486;51.442;6.778;2023-03-14T00:31:57;98873.75;;;12.08;82.37
67697;BME280;54486;51.442;6.778;2023-03-14T00:34:29;98900.75;;;12.08;81.57
67697;BME280;54486;51.442;6.778;2023-03-14T00:36:56;98903.50;;;12.05;84.93
67697;BME280;54486;51.442;6.778;2023-03-14T00:39:23;98904.34;;;11.86;88.71
67697;BME280;54486;51.442;6.778;2023-03-14T00:41:51;98900.59;;;11.71;91.29
67697;BME280;54486;51.442;6.778;2023-03-14T00:44:18;98908.63;;;11.45;93.19
67697;BME280;54486;51.442;6.778;2023-03-14T00:46:46;98916.16;;;11.31;93.97
67697;BME280;54486;51.442;6.778;2023-03-14T00:49:16;98905.47;;;11.15;95.29
67697;BME280;54486;51.442;6.778;2023-03-14T00:51:43;98918.94;;;11.04;96.43
67697;BME280;54486;51.442;6.778;2023-03-14T00:54:10;98905.59;;;10.90;96.96
67697;BME280;54486;51.442;6.778;2023-03-14T00:56:37;98906.63;;;10.86;96.57
67697;BME280;54486;51.442;6.778;2023-03-14T00:59:04;98898.44;;;10.72;96.71
67697;BME280;54486;51.442;6.778;2023-03-14T01:01:31;98900.34;;;10.69;96.04
67697;BME280;54486;51.442;6.778;2023-03-14T01:03:59;98904.03;;;10.63;96.44
67697;BME280;54486;51.442;6.778;2023-03-14T01:06:28;98908.56;;;10.58;96.38
67697;BME280;54486;51.442;6.778;2023-03-14T01:08:57;98910.47;;;10.53;96.31
67697;BME280;54486;51.442;6.778;2023-03-14T01:11:29;98908.91;;;10.49;96.20
67697;BME280;54486;51.442;6.778;2023-03-14T01:13:57;98917.53;;;10.51;95.87
67697;BME280;54486;51.442;6.778;2023-03-14T01:16:26;98915.03;;;10.48;96.58
67697;BME280;54486;51.442;6.778;2023-03-14T01:18:54;98914.25;;;10.46;96.73
67697;BME280;54486;51.442;6.778;2023-03-14T01:21:27;98897.78;;;10.44;97.33
67697;BME280;54486;51.442;6.778;2023-03-14T01:23:57;98909.78;;;10.49;96.54
67697;BME280;54486;51.442;6.778;2023-03-14T01:26:27;98891.44;;;10.51;96.25
67697;BME280;54486;51.442;6.778;2023-03-14T01:28:55;98893.38;;;10.46;96.21
67697;BME280;54486;51.442;6.778;2023-03-14T01:31:22;98881.25;;;10.45;96.23
67697;BME280;54486;51.442;6.778;2023-03-14T01:33:50;98900.41;;;10.44;95.70
67697;BME280;54486;51.442;6.778;2023-03-14T01:36:17;98898.50;;;10.49;95.72
67697;BME280;54486;51.442;6.778;2023-03-14T01:38:45;98895.06;;;10.47;95.67
67697;BME280;54486;51.442;6.778;2023-03-14T01:41:20;98900.50;;;10.41;95.82
67697;BME280;54486;51.442;6.778;2023-03-14T01:43:48;98899.34;;;10.49;95.21
67697;BME280;54486;51.442;6.778;2023-03-14T01:46:34;98888.41;;;10.40;95.12
67697;BME280;54486;51.442;6.778;2023-03-14T01:49:09;98879.66;;;10.41;94.80
67697;BME280;54486;51.442;6.778;2023-03-14T01:52:06;98878.78;;;10.40;94.17
67697;BME280;54486;51.442;6.778;2023-03-14T01:54:39;98885.09;;;10.35;94.48
67697;BME280;54486;51.442;6.778;2023-03-14T01:57:17;98886.69;;;10.39;95.06
67697;BME280;54486;51.442;6.778;2023-03-14T02:00:13;98884.97;;;10.38;94.27
67697;BME280;54486;51.442;6.778;2023-03-14T02:02:50;98886.84;;;10.34;94.29
67697;BME280;54486;51.442;6.778;2023-03-14T02:05:21;98891.28;;;10.32;94.53
67697;BME280;54486;51.442;6.778;2023-03-14T02:07:56;98890.31;;;10.35;95.16
67697;BME280;54486;51.442;6.778;2023-03-14T02:10:28;98874.56;;;10.38;94.07
67697;BME280;54486;51.442;6.778;2023-03-14T02:13:02;98875.25;;;10.43;93.54
67697;BME280;54486;51.442;6.778;2023-03-14T02:15:37;98868.22;;;10.45;92.68
67697;BME280;54486;51.442;6.778;2023-03-14T02:18:10;98869.63;;;10.53;93.21
67697;BME280;54486;51.442;6.778;2023-03-14T02:26:27;98867.09;;;10.52;93.00
67697;BME280;54486;51.442;6.778;2023-03-14T02:29:01;98887.13;;;10.50;93.29
67697;BME280;54486;51.442;6.778;2023-03-14T02:31:28;98875.81;;;10.51;93.52
67697;BME280;54486;51.442;6.778;2023-03-14T02:33:58;98875.44;;;10.60;93.60
67697;BME280;54486;51.442;6.778;2023-03-14T02:36:28;98877.28;;;10.58;93.69
67697;BME280;54486;51.442;6.778;2023-03-14T02:39:06;98887.81;;;10.55;93.71
67697;BME280;54486;51.442;6.778;2023-03-14T02:41:35;98884.31;;;10.56;93.85
67697;BME280;54486;51.442;6.778;2023-03-14T02:44:03;98887.13;;;10.50;94.36
67697;BME280;54486;51.442;6.778;2023-03-14T02:46:31;98879.78;;;10.61;93.75
67697;BME280;54486;51.442;6.778;2023-03-14T02:49:12;98885.38;;;10.50;94.85
67697;BME280;54486;51.442;6.778;2023-03-14T02:51:43;98873.53;;;10.42;95.41
67697;BME280;54486;51.442;6.778;2023-03-14T02:54:12;98872.66;;;10.43;95.32
67697;BME280;54486;51.442;6.778;2023-03-14T02:56:41;98870.97;;;10.40;95.67
67697;BME280;54486;51.442;6.778;2023-03-14T02:59:09;98876.25;;;10.39;95.93
67697;BME280;54486;51.442;6.778;2023-03-14T03:01:37;98869.97;;;10.44;95.83
67697;BME280;54486;51.442;6.778;2023-03-14T03:04:04;98871.16;;;10.36;96.43
67697;BME280;54486;51.442;6.778;2023-03-14T03:06:32;98864.97;;;10.38;96.06
67697;BME280;54486;51.442;6.778;2023-03-14T03:08:59;98858.78;;;10.41;95.24
67697;BME280;54486;51.442;6.778;2023-03-14T03:11:26;98852.91;;;10.36;95.69
67697;BME280;54486;51.442;6.778;2023-03-14T03:13:53;98850.44;;;10.33;95.62
67697;BME280;54486;51.442;6.778;2023-03-14T03:16:24;98851.56;;;10.26;95.66
67697;BME280;54486;51.442;6.778;2023-03-14T03:18:51;98851.50;;;10.27;95.21
67697;BME280;54486;51.442;6.778;2023-03-14T03:21:18;98853.19;;;10.28;95.44
67697;BME280;54486;51.442;6.778;2023-03-14T03:23:45;98840.13;;;10.30;94.74
67697;BME280;54486;51.442;6.778;2023-03-14T03:26:14;98842.59;;;10.33;94.33
67697;BME280;54486;51.442;6.778;2023-03-14T03:28:41;98839.31;;;10.28;94.62
67697;BME280;54486;51.442;6.778;2023-03-14T03:31:10;98843.47;;;10.33;94.01
67697;BME280;54486;51.442;6.778;2023-03-14T03:33:38;98840.84;;;10.33;93.85
67697;BME280;54486;51.442;6.778;2023-03-14T03:36:06;98837.81;;;10.44;93.05
67697;BME280;54486;51.442;6.778;2023-03-14T03:38:34;98841.25;;;10.46;93.07
67697;BME280;54486;51.442;6.778;2023-03-14T03:41:04;98837.72;;;10.47;93.42
67697;BME280;54486;51.442;6.778;2023-03-14T03:43:31;98841.38;;;10.43;94.25
67697;BME280;54486;51.442;6.778;2023-03-14T03:46:03;98846.06;;;10.33;96.07
67697;BME280;54486;51.442;6.778;2023-03-14T03:48:30;98835.03;;;10.27;98.23
67697;BME280;54486;51.442;6.778;2023-03-14T03:50:57;98832.44;;;10.25;99.43
67697;BME280;54486;51.442;6.778;2023-03-14T03:53:24;98830.16;;;10.18;100.00
67697;BME280;54486;51.442;6.778;2023-03-14T03:55:59;98828.63;;;10.10;100.00
67697;BME280;54486;51.442;6.778;2023-03-14T03:58:27;98819.19;;;10.08;100.00
67697;BME280;54486;51.442;6.778;2023-03-14T04:00:54;98830.53;;;10.05;100.00
67697;BME280;54486;51.442;6.778;2023-03-14T04:03:21;98814.97;;;10.04;100.00
67697;BME280;54486;51.442;6.778;2023-03-14T04:06:03;98824.53;;;10.03;100.00
67697;BME280;54486;51.442;6.778;2023-03-14T04:08:31;98825.75;;;10.18;100.00
67697;BME280;54486;51.442;6.778;2023-03-14T04:10:59;98825.09;;;10.11;100.00
67697;BME280;54486;51.442;6.778;2023-03-14T04:13:27;98835.75;;;10.05;100.00
67697;BME280;54486;51.442;6.778;2023-03-14T04:15:55;98837.16;;;10.16;100.00
67697;BME280;54486;51.442;6.778;2023-03-14T04:18:24;98823.44;;;10.10;100.00
67697;BME280;54486;51.442;6.778;2023-03-14T04:20:55;98820.34;;;9.99;100.00
67697;BME280;54486;51.442;6.778;2023-03-14T04:23:24;98820.78;;;9.87;100.00
67697;BME280;54486;51.442;6.778;2023-03-14T04:25:52;98818.56;;;9.77;100.00
67697;BME280;54486;51.442;6.778;2023-03-14T04:28:20;98818.03;;;9.67;100.00
67697;BME280;54486;51.442;6.778;2023-03-14T04:30:47;98808.69;;;9.62;100.00
67697;BME280;54486;51.442;6.778;2023-03-14T04:33:14;98804.44;;;9.59;100.00
67697;BME280;54486;51.442;6.778;2023-03-14T04:35:45;98804.78;;;9.50;100.00
67697;BME280;54486;51.442;6.778;2023-03-14T04:38:17;98814.53;;;9.43;100.00
67697;BME280;54486;51.442;6.778;2023-03-14T04:40:44;98804.25;;;9.40;100.00
67697;BME280;54486;51.442;6.778;2023-03-14T04:43:11;98803.38;;;9.40;100.00
67697;BME280;54486;51.442;6.778;2023-03-14T04:45:42;98810.69;;;9.29;100.00
67697;BME280;54486;51.442;6.778;2023-03-14T04:48:10;98810.56;;;9.32;100.00
67697;BME280;54486;51.442;6.778;2023-03-14T04:50:38;98802.09;;;9.27;100.00
67697;BME280;54486;51.442;6.778;2023-03-14T04:53:05;98798.59;;;9.28;100.00
67697;BME280;54486;51.442;6.778;2023-03-14T04:55:35;98798.59;;;9.28;100.00
67697;BME280;54486;51.442;6.778;2023-03-14T04:58:02;98802.09;;;9.27;100.00
67697;BME280;54486;51.442;6.778;2023-03-14T05:00:29;98800.38;;;9.26;100.00
67697;BME280;54486;51.442;6.778;2023-03-14T05:02:57;98797.00;;;9.24;100.00
67697;BME280;54486;51.442;6.778;2023-03-14T05:05:25;98788.50;;;9.19;100.00
67697;BME280;54486;51.442;6.778;2023-03-14T05:07:53;98789.44;;;9.16;100.00
67697;BME280;54486;51.442;6.778;2023-03-14T05:10:21;98785.28;;;9.11;100.00
67697;BME280;54486;51.442;6.778;2023-03-14T05:12:48;98775.84;;;9.08;100.00
67697;BME280;54486;51.442;6.778;2023-03-14T05:15:15;98773.19;;;9.10;100.00
67697;BME280;54486;51.442;6.778;2023-03-14T05:17:42;98764.69;;;9.04;100.00
67697;BME280;54486;51.442;6.778;2023-03-14T05:20:10;98779.66;;;8.98;100.00
67697;BME280;54486;51.442;6.778;2023-03-14T05:22:39;98772.81;;;8.95;100.00
67697;BME280;54486;51.442;6.778;2023-03-14T05:25:08;98774.50;;;8.96;100.00
67697;BME280;54486;51.442;6.778;2023-03-14T05:27:35;98767.50;;;8.98;100.00
67697;BME280;54486;51.442;6.778;2023-03-14T05:30:04;98758.09;;;8.94;100.00
67697;BME280;54486;51.442;6.778;2023-03-14T05:32:34;98756.31;;;8.96;100.00
67697;BME280;54486;51.442;6.778;2023-03-14T05:35:01;98758.19;;;8.91;100.00
67697;BME280;54486;51.442;6.778;2023-03-14T05:37:28;98746.78;;;8.95;100.00
67697;BME280;54486;51.442;6.778;2023-03-14T05:39:55;98756.31;;;8.96;100.00
67697;BME280;54486;51.442;6.778;2023-03-14T05:42:23;98747.47;;;9.00;100.00
67697;BME280;54486;51.442;6.778;2023-03-14T05:44:50;98745.59;;;9.06;100.00
67697;BME280;54486;51.442;6.778;2023-03-14T05:47:17;98743.78;;;9.08;100.00
67697;BME280;54486;51.442;6.778;2023-03-14T05:49:44;98754.19;;;9.08;100.00
67697;BME280;54486;51.442;6.778;2023-03-14T05:52:11;98743.78;;;9.08;100.00
67697;BME280;54486;51.442;6.778;2023-03-14T05:54:38;98738.47;;;9.11;100.00
67697;BME280;54486;51.442;6.778;2023-03-14T05:57:06;98741.84;;;9.13;100.00
67697;BME280;54486;51.442;6.778;2023-03-14T05:59:33;98739.97;;;9.18;100.00
67697;BME280;54486;51.442;6.778;2023-03-14T06:02:01;98746.66;;;9.25;100.00
67697;BME280;54486;51.442;6.778;2023-03-14T06:04:28;98737.72;;;9.32;100.00
67697;BME280;54486;51.442;6.778;2023-03-14T06:06:54;98737.94;;;9.26;100.00
67697;BME280;54486;51.442;6.778;2023-03-14T06:09:22;98732.63;;;9.29;100.00
67697;BME280;54486;51.442;6.778;2023-03-14T06:11:50;98739.59;;;9.28;100.00
67697;BME280;54486;51.442;6.778;2023-03-14T06:14:17;98741.13;;;9.34;100.00
67697;BME280;54486;51.442;6.778;2023-03-14T06:16:44;98741.03;;;9.37;100.00
67697;BME280;54486;51.442;6.778;2023-03-14T06:19:12;98746.34;;;9.34;100.00
67697;BME280;54486;51.442;6.778;2023-03-14T06:21:40;98746.06;;;9.41;100.00
67697;BME280;54486;51.442;6.778;2023-03-14T06:24:07;98751.09;;;9.46;100.00
67697;BME280;54486;51.442;6.778;2023-03-14T06:26:34;98736.34;;;9.46;100.00
67697;BME280;54486;51.442;6.778;2023-03-14T06:29:01;98750.56;;;9.61;100.00
67697;BME280;54486;51.442;6.778;2023-03-14T06:31:30;98741.84;;;9.62;100.00
67697;BME280;54486;51.442;6.778;2023-03-14T06:33:58;98739.69;;;9.73;100.00
67697;BME280;54486;51.442;6.778;2023-03-14T06:36:26;98741.50;;;9.71;100.00
67697;BME280;54486;51.442;6.778;2023-03-14T06:38:53;98739.91;;;9.67;100.00
67697;BME280;54486;51.442;6.778;2023-03-14T06:41:20;98752.81;;;9.70;100.00
67697;BME280;54486;51.442;6.778;2023-03-14T06:43:50;98741.41;;;9.74;100.00
67697;BME280;54486;51.442;6.778;2023-03-14T06:46:21;98746.50;;;9.77;100.00
67697;BME280;54486;51.442;6.778;2023-03-14T06:48:48;98755.69;;;9.87;100.00
67697;BME280;54486;51.442;6.778;2023-03-14T06:51:16;98755.78;;;9.84;100.00
67697;BME280;54486;51.442;6.778;2023-03-14T06:53:43;98754.94;;;9.84;100.00
67697;BME280;54486;51.442;6.778;2023-03-14T06:56:10;98746.16;;;9.86;100.00
67697;BME280;54486;51.442;6.778;2023-03-14T06:58:37;98754.78;;;9.88;100.00
67697;BME280;54486;51.442;6.778;2023-03-14T07:01:04;98749.56;;;9.88;100.00
67697;BME280;54486;51.442;6.778;2023-03-14T07:03:35;98754.66;;;9.91;100.00
67697;BME280;54486;51.442;6.778;2023-03-14T07:06:04;98761.00;;;9.84;100.00
67697;BME280;54486;51.442;6.778;2023-03-14T07:08:31;98760.00;;;9.88;100.00
67697;BME280;54486;51.442;6.778;2023-03-14T07:10:58;98762.25;;;9.97;100.00
67697;BME280;54486;51.442;6.778;2023-03-14T07:13:25;98764.22;;;9.91;100.00
67697;BME280;54486;51.442;6.778;2023-03-14T07:15:53;98758.94;;;9.92;100.00
67697;BME280;54486;51.442;6.778;2023-03-14T07:18:20;98763.16;;;9.96;100.00
67697;BME280;54486;51.442;6.778;2023-03-14T07:20:47;98769.94;;;10.00;100.00
67697;BME280;54486;51.442;6.778;2023-03-14T07:23:17;98773.09;;;10.08;100.00
67697;BME280;54486;51.442;6.778;2023-03-14T07:25:44;98770.56;;;10.07;100.00
67697;BME280;54486;51.442;6.778;2023-03-14T07:28:11;98768.50;;;10.17;100.00
67697;BME280;54486;51.442;6.778;2023-03-14T07:30:38;98770.09;;;10.21;100.00
67697;BME280;54486;51.442;6.778;2023-03-14T07:33:07;98777.81;;;10.24;100.00
67697;BME280;54486;51.442;6.778;2023-03-14T07:35:37;98772.59;;;10.24;100.00
67697;BME280;54486;51.442;6.778;2023-03-14T07:38:04;98770.53;;;10.32;100.00
67697;BME280;54486;51.442;6.778;2023-03-14T07:40:31;98776.88;;;10.25;100.00
67697;BME280;54486;51.442;6.778;2023-03-14T07:42:58;98779.72;;;10.19;100.00
67697;BME280;54486;51.442;6.778;2023-03-14T07:45:26;98777.81;;;10.24;100.00
67697;BME280;54486;51.442;6.778;2023-03-14T07:47:54;98792.06;;;10.14;100.00
67697;BME280;54486;51.442;6.778;2023-03-14T07:50:25;98781.53;;;10.17;100.00
67697;BME280;54486;51.442;6.778;2023-03-14T07:52:53;98785.03;;;10.16;100.00
67697;BME280;54486;51.442;6.778;2023-03-14T07:55:21;98791.72;;;10.23;100.00
67697;BME280;54486;51.442;6.778;2023-03-14T07:57:48;98791.38;;;10.32;100.00
67697;BME280;54486;51.442;6.778;2023-03-14T08:00:15;98797.47;;;10.31;100.00
67697;BME280;54486;51.442;6.778;2023-03-14T08:02:43;98799.75;;;10.40;100.00
67697;BME280;54486;51.442;6.778;2023-03-14T08:05:10;98801.56;;;10.38;100.00
67697;BME280;54486;51.442;6.778;2023-03-14T08:07:37;98808.59;;;10.36;100.00
67697;BME280;54486;51.442;6.778;2023-03-14T08:10:05;98799.53;;;10.46;100.00
67697;BME280;54486;51.442;6.778;2023-03-14T08:12:33;98800.97;;;10.53;100.00
67697;BME280;54486;51.442;6.778;2023-03-14T08:15:04;98793.88;;;10.56;100.00
67697;BME280;54486;51.442;6.778;2023-03-14T08:17:31;98796.06;;;10.67;100.00
67697;BME280;54486;51.442;6.778;2023-03-14T08:19:58;98789.59;;;10.77;100.00
67697;BME280;54486;51.442;6.778;2023-03-14T08:22:26;98796.41;;;10.81;100.00
67697;BME280;54486;51.442;6.778;2023-03-14T08:24:53;98790.72;;;10.92;100.00
67697;BME280;54486;51.442;6.778;2023-03-14T08:27:19;98787.69;;;11.02;100.00
67697;BME280;54486;51.442;6.778;2023-03-14T08:29:46;98794.34;;;11.09;100.00
67697;BME280;54486;51.442;6.778;2023-03-14T08:32:14;98797.81;;;11.10;100.00
67697;BME280;54486;51.442;6.778;2023-03-14T08:34:44;98806.91;;;11.22;100.00
67697;BME280;54486;51.442;6.778;2023-03-14T08:37:12;98804.22;;;11.23;100.00
67697;BME280;54486;51.442;6.778;2023-03-14T08:39:52;98804.47;;;11.17;100.00
67697;BME280;54486;51.442;6.778;2023-03-14T08:42:20;98804.66;;;11.12;100.00
67697;BME280;54486;51.442;6.778;2023-03-14T08:44:47;98819.53;;;11.10;100.00
67697;BME280;54486;51.442;6.778;2023-03-14T08:47:14;98815.13;;;11.12;100.00
67697;BME280;54486;51.442;6.778;2023-03-14T08:49:41;98824.75;;;11.10;100.00
67697;BME280;54486;51.442;6.778;2023-03-14T08:52:08;98821.88;;;10.96;100.00
67697;BME280;54486;51.442;6.778;2023-03-14T08:54:36;98825.75;;;10.86;100.00
67697;BME280;54486;51.442;6.778;2023-03-14T08:57:04;98831.97;;;10.82;100.00
67697;BME280;54486;51.442;6.778;2023-03-14T08:59:31;98834.09;;;10.73;100.00
67697;BME280;54486;51.442;6.778;2023-03-14T09:01:58;98838.94;;;10.60;100.00
67697;BME280;54486;51.442;6.778;2023-03-14T09:04:30;98856.41;;;10.58;100.00
67697;BME280;54486;51.442;6.778;2023-03-14T09:06:58;98850.50;;;10.53;100.00
67697;BME280;54486;51.442;6.778;2023-03-14T09:09:26;98924.56;;;10.49;100.00
67697;BME280;54486;51.442;6.778;2023-03-14T09:11:53;98934.28;;;10.21;100.00
67697;BME280;54486;51.442;6.778;2023-03-14T09:14:20;98942.31;;;9.88;100.00
67697;BME280;54486;51.442;6.778;2023-03-14T09:16:49;98953.44;;;9.67;100.00
67697;BME280;54486;51.442;6.778;2023-03-14T09:19:16;98947.22;;;9.45;99.35
67697;BME280;54486;51.442;6.778;2023-03-14T09:21:43;98968.25;;;9.39;100.00
67697;BME280;54486;51.442;6.778;2023-03-14T09:24:11;98970.72;;;9.16;100.00
67697;BME280;54486;51.442;6.778;2023-03-14T09:26:38;98983.88;;;9.10;100.00
67697;BME280;54486;51.442;6.778;2023-03-14T09:29:06;98990.00;;;9.09;100.00
67697;BME280;54486;51.442;6.778;2023-03-14T09:31:33;99002.28;;;9.03;100.00
67697;BME280;54486;51.442;6.778;2023-03-14T09:34:01;99010.59;;;8.87;100.00
67697;BME280;54486;51.442;6.778;2023-03-14T09:36:28;99016.72;;;8.84;100.00
67697;BME280;54486;51.442;6.778;2023-03-14T09:38:57;99039.44;;;8.78;100.00
67697;BME280;54486;51.442;6.778;2023-03-14T09:44:14;99056.31;;;8.94;100.00
67697;BME280;54486;51.442;6.778;2023-03-14T09:46:45;99072.53;;;9.03;100.00
67697;BME280;54486;51.442;6.778;2023-03-14T09:49:21;99080.69;;;8.91;100.00
67697;BME280;54486;51.442;6.778;2023-03-14T09:51:53;99092.44;;;8.74;100.00
67697;BME280;54486;51.442;6.778;2023-03-14T09:54:49;99093.34;;;8.71;100.00
67697;BME280;54486;51.442;6.778;2023-03-14T09:57:19;99110.75;;;8.69;100.00
67697;BME280;54486;51.442;6.778;2023-03-14T09:59:49;99118.38;;;8.75;100.00
67697;BME280;54486;51.442;6.778;2023-03-14T10:02:24;99128.25;;;8.64;100.00
67697;BME280;54486;51.442;6.778;2023-03-14T10:04:53;99131.19;;;8.49;100.00
67697;BME280;54486;51.442;6.778;2023-03-14T10:07:30;99142.03;;;8.66;100.00
67697;BME280;54486;51.442;6.778;2023-03-14T10:09:59;99145.91;;;8.50;100.00
67697;BME280;54486;51.442;6.778;2023-03-14T10:12:34;99150.03;;;8.59;100.00
67697;BME280;54486;51.442;6.778;2023-03-14T10:15:07;99161.81;;;8.72;100.00
67697;BME280;54486;51.442;6.778;2023-03-14T10:17:43;99177.03;;;8.53;100.00
67697;BME280;54486;51.442;6.778;2023-03-14T10:23:27;99202.09;;;8.56;100.00
67697;BME280;54486;51.442;6.778;2023-03-14T10:28:30;99241.44;;;8.40;100.00
67697;BME280;54486;51.442;6.778;2023-03-14T10:30:58;99252.00;;;8.33;100.00
67697;BME280;54486;51.442;6.778;2023-03-14T10:33:28;99250.50;;;8.23;100.00
67697;BME280;54486;51.442;6.778;2023-03-14T10:38:43;99296.00;;;8.01;100.00
67697;BME280;54486;51.442;6.778;2023-03-14T10:41:23;99312.91;;;7.78;100.00
67697;BME280;54486;51.442;6.778;2023-03-14T10:43:55;99331.13;;;7.75;100.00
67697;BME280;54486;51.442;6.778;2023-03-14T10:46:26;99350.63;;;7.50;100.00
67697;BME280;54486;51.442;6.778;2023-03-14T10:48:56;99365.53;;;7.39;100.00
67697;BME280;54486;51.442;6.778;2023-03-14T10:51:29;99367.16;;;7.44;100.00
67697;BME280;54486;51.442;6.778;2023-03-14T10:54:02;99388.81;;;7.42;100.00
67697;BME280;54486;51.442;6.778;2023-03-14T10:56:35;99393.91;;;7.50;100.00
67697;BME280;54486;51.442;6.778;2023-03-14T10:59:07;99407.63;;;7.56;100.00
67697;BME280;54486;51.442;6.778;2023-03-14T11:04:59;99411.97;;;8.02;98.10
67697;BME280;54486;51.442;6.778;2023-03-14T11:07:44;99420.06;;;8.32;97.47
67697;BME280;54486;51.442;6.778;2023-03-14T11:10:33;99446.69;;;8.45;91.78
67697;BME280;54486;51.442;6.778;2023-03-14T11:16:09;99470.72;;;8.09;92.49
67697;BME280;54486;51.442;6.778;2023-03-14T11:21:53;99494.16;;;8.06;93.47
67697;BME280;54486;51.442;6.778;2023-03-14T11:24:49;99516.66;;;8.07;92.55
67697;BME280;54486;51.442;6.778;2023-03-14T11:30:17;99532.94;;;8.15;87.23
67697;BME280;54486;51.442;6.778;2023-03-14T11:32:49;99536.59;;;8.05;88.49
67697;BME280;54486;51.442;6.778;2023-03-14T11:35:24;99550.53;;;8.01;86.98
67697;BME280;54486;51.442;6.778;2023-03-14T11:38:05;99545.28;;;8.04;87.55
67697;BME280;54486;51.442;6.778;2023-03-14T11:40:38;99567.81;;;8.02;87.19
67697;BME280;54486;51.442;6.778;2023-03-14T11:43:15;99562.66;;;7.98;86.41
67697;BME280;54486;51.442;6.778;2023-03-14T11:45:45;99571.25;;;8.04;88.34
67697;BME280;54486;51.442;6.778;2023-03-14T11:51:08;99591.28;;;7.95;86.78
67697;BME280;54486;51.442;6.778;2023-03-14T11:53:48;99600.59;;;8.09;87.61
67697;BME280;54486;51.442;6.778;2023-03-14T11:56:25;99598.94;;;8.05;86.23
67697;BME280;54486;51.442;6.778;2023-03-14T11:58:59;99604.13;;;8.05;85.36
67697;BME280;54486;51.442;6.778;2023-03-14T12:01:40;99619.59;;;8.11;86.49
67697;BME280;54486;51.442;6.778;2023-03-14T12:07:30;99641.66;;;8.42;83.99
67697;BME280;54486;51.442;6.778;2023-03-14T12:10:02;99643.47;;;8.37;82.44
67697;BME280;54486;51.442;6.778;2023-03-14T12:12:30;99655.69;;;8.32;81.81
67697;BME280;54486;51.442;6.778;2023-03-14T12:15:00;99660.16;;;8.22;82.37
67697;BME280;54486;51.442;6.778;2023-03-14T12:17:37;99659.94;;;8.37;84.50
67697;BME280;54486;51.442;6.778;2023-03-14T12:20:18;99661.22;;;8.64;84.09
67697;BME280;54486;51.442;6.778;2023-03-14T12:22:49;99662.72;;;8.76;81.42
67697;BME280;54486;51.442;6.778;2023-03-14T12:25:24;99675.72;;;8.77;80.37
67697;BME280;54486;51.442;6.778;2023-03-14T12:30:33;99700.69;;;8.34;78.57
67697;BME280;54486;51.442;6.778;2023-03-14T12:33:12;99721.84;;;8.10;81.44
67697;BME280;54486;51.442;6.778;2023-03-14T12:35:41;99737.69;;;7.88;82.35
67697;BME280;54486;51.442;6.778;2023-03-14T12:38:13;99744.72;;;7.80;83.86
67697;BME280;54486;51.442;6.778;2023-03-14T12:43:38;99754.94;;;7.92;84.64
67697;BME280;54486;51.442;6.778;2023-03-14T12:49:03;99775.69;;;7.95;88.57
67697;BME280;54486;51.442;6.778;2023-03-14T12:51:36;99786.66;;;8.19;85.97
67697;BME280;54486;51.442;6.778;2023-03-14T12:57:19;99797.25;;;8.65;81.43
67697;BME280;54486;51.442;6.778;2023-03-14T12:59:56;99800.72;;;8.65;79.67
67697;BME280;54486;51.442;6.778;2023-03-14T13:02:28;99812.81;;;8.69;78.51
67697;BME280;54486;51.442;6.778;2023-03-14T13:05:03;99824.75;;;8.82;75.63
67697;BME280;54486;51.442;6.778;2023-03-14T13:07:36;99834.97;;;8.35;76.21
67697;BME280;54486;51.442;6.778;2023-03-14T13:10:29;99852.91;;;7.83;78.66
67697;BME280;54486;51.442;6.778;2023-03-14T13:13:20;99873.78;;;7.74;78.99
67697;BME280;54486;51.442;6.778;2023-03-14T13:15:49;99875.72;;;7.51;76.34
67697;BME280;54486;51.442;6.778;2023-03-14T13:18:36;99877.41;;;7.53;77.38
67697;BME280;54486;51.442;6.778;2023-03-14T13:21:12;99878.19;;;7.64;77.94
67697;BME280;54486;51.442;6.778;2023-03-14T13:23:54;99890.31;;;7.65;76.63
67697;BME280;54486;51.442;6.778;2023-03-14T13:26:21;99905.88;;;7.65;76.88
67697;BME280;54486;51.442;6.778;2023-03-14T13:28:51;99902.31;;;7.72;75.99
67697;BME280;54486;51.442;6.778;2023-03-14T13:31:25;99917.97;;;7.66;76.51
67697;BME280;54486;51.442;6.778;2023-03-14T13:34:00;99927.47;;;7.70;76.70
67697;BME280;54486;51.442;6.778;2023-03-14T13:36:27;99924.63;;;7.91;77.92
67697;BME280;54486;51.442;6.778;2023-03-14T13:38:59;99919.31;;;8.05;78.91
67697;BME280;54486;51.442;6.778;2023-03-14T13:41:27;99920.94;;;8.17;75.82
67697;BME280;54486;51.442;6.778;2023-03-14T13:44:02;99918.22;;;8.26;75.64
67697;BME280;54486;51.442;6.778;2023-03-14T13:46:33;99924.66;;;8.66;75.35
67697;BME280;54486;51.442;6.778;2023-03-14T13:49:04;99925.91;;;9.00;73.21
67697;BME280;54486;51.442;6.778;2023-03-14T13:51:32;99931.38;;;9.39;72.91
67697;BME280;54486;51.442;6.778;2023-03-14T13:54:01;99940.72;;;9.53;71.82
67697;BME280;54486;51.442;6.778;2023-03-14T13:56:32;99946.13;;;9.38;69.82
67697;BME280;54486;51.442;6.778;2023-03-14T13:58:59;99941.41;;;9.63;69.84
67697;BME280;54486;51.442;6.778;2023-03-14T14:01:30;99951.41;;;10.35;68.79
67697;BME280;54486;51.442;6.778;2023-03-14T14:04:19;99951.16;;;10.88;61.00